2D5

Oakes Municipal Airport

Oakes, North Dakota, USA
METAR K2D5 251735Z AUTO VRB04KT 10SM FEW018 OVC095 10/07 A3004 RMK AO2 PWINO
Observed Flight Rules
Sep-25 @ 17:35 UTC (14 minutes ago) Visual Flight Rules
Wind Visibility Clouds
Variable at 4 knots 10 miles
  • Few at 1,800' AGL
  • Overcast at 9,500' AGL
Temperatures Readings
Current 10°C / 50°F
Dewpoint 7°C / 45°F
Humidity 82%
Altimeter 30.04" Hg
Pressure 1017 hPa
Elevation 407
METAR K2D5 251735Z AUTO VRB04KT 10SM FEW018 OVC095 10/07 A3004 RMK AO2 PWINO
Observed Flight Rules
Sep-25 @ 17:35 UTC
(14 minutes ago)
VFR
Wind Visibility
Variable at 4 knots 10 miles
Clouds
  • Few at 1,800' AGL
  • Overcast at 9,500' AGL
Temperature Dewpoint
10°C / 50°F 7°C / 45°F
Humidity Altimeter Pressure
82% 30.04" Hg 1017 hPa